createdAt,value
2018-10-02T00:00:27.134Z,91.12
2018-10-02T00:02:56.017Z,90.63
2018-10-02T00:05:24.456Z,90.53
2018-10-02T00:07:52.798Z,89.87
2018-10-02T00:10:21.109Z,90.19
2018-10-02T00:12:54.714Z,90.78
2018-10-02T00:15:23.082Z,89.97
2018-10-02T00:17:51.562Z,90.41
2018-10-02T00:20:19.921Z,89.70
2018-10-02T00:22:48.294Z,91.16
2018-10-02T00:25:16.690Z,90.86
2018-10-02T00:27:45.070Z,90.03
2018-10-02T00:30:13.626Z,89.69
2018-10-02T00:32:41.962Z,90.60
2018-10-02T00:35:10.330Z,90.82
2018-10-02T00:37:38.738Z,91.20
2018-10-02T00:40:07.149Z,91.01
2018-10-02T00:42:35.502Z,91.31
2018-10-02T00:45:03.930Z,91.97
2018-10-02T00:47:32.234Z,91.67
2018-10-02T00:50:00.535Z,91.04
2018-10-02T00:52:28.875Z,91.62
2018-10-02T00:54:57.162Z,91.06
2018-10-02T00:57:25.497Z,91.12
2018-10-02T00:59:53.792Z,91.23
2018-10-02T01:02:22.114Z,91.16
2018-10-02T01:04:50.430Z,91.47
2018-10-02T01:07:18.798Z,91.25
2018-10-02T01:09:47.111Z,90.42
2018-10-02T01:12:15.483Z,91.02
2018-10-02T01:14:43.828Z,90.99
2018-10-02T01:17:12.207Z,90.08
2018-10-02T01:19:40.620Z,91.03
2018-10-02T01:22:08.957Z,90.62
2018-10-02T01:24:37.278Z,90.50
2018-10-02T01:27:05.770Z,90.27
2018-10-02T01:29:34.084Z,90.81
2018-10-02T01:32:02.434Z,90.24
2018-10-02T01:34:30.799Z,90.11
2018-10-02T01:36:59.110Z,90.17
2018-10-02T01:39:27.436Z,89.88
2018-10-02T01:41:55.737Z,90.03
2018-10-02T01:44:24.090Z,89.68
2018-10-02T01:46:52.474Z,91.05
2018-10-02T01:49:20.771Z,90.18
2018-10-02T01:51:49.102Z,90.56
2018-10-02T01:54:17.398Z,89.54
2018-10-02T01:56:45.747Z,90.54
2018-10-02T01:59:14.069Z,90.24
2018-10-02T02:01:42.499Z,90.59
2018-10-02T02:04:10.828Z,90.50
2018-10-02T02:06:39.157Z,89.72
2018-10-02T02:09:07.878Z,89.53
2018-10-02T02:11:36.478Z,90.75
2018-10-02T02:14:04.864Z,90.14
2018-10-02T02:16:33.215Z,89.40
2018-10-02T02:19:01.611Z,90.02
2018-10-02T02:21:29.914Z,90.29
2018-10-02T02:23:58.247Z,89.64
2018-10-02T02:26:26.608Z,89.53
2018-10-02T02:28:54.895Z,90.36
2018-10-02T02:31:23.219Z,89.62
2018-10-02T02:33:51.539Z,90.50
2018-10-02T02:36:32.392Z,90.49
2018-10-02T02:39:00.740Z,90.24
2018-10-02T02:41:29.129Z,90.78
2018-10-02T02:43:57.446Z,91.33
2018-10-02T02:46:25.745Z,90.71
2018-10-02T02:48:59.548Z,91.55
2018-10-02T02:51:31.398Z,90.76
2018-10-02T02:53:59.730Z,91.92
2018-10-02T02:56:28.911Z,91.08
2018-10-02T02:58:58.185Z,90.93
2018-10-02T03:01:26.909Z,91.86
2018-10-02T03:03:55.215Z,90.89
2018-10-02T03:06:23.587Z,90.47
2018-10-02T03:08:51.927Z,89.93
2018-10-02T03:11:20.266Z,89.92
2018-10-02T03:13:48.606Z,90.29
2018-10-02T03:16:16.906Z,90.59
2018-10-02T03:18:45.254Z,89.48
2018-10-02T03:21:13.613Z,90.08
2018-10-02T03:23:42.045Z,89.85
2018-10-02T03:26:10.394Z,89.23
2018-10-02T03:28:38.748Z,90.07
2018-10-02T03:31:07.453Z,90.78
2018-10-02T03:33:35.865Z,90.97
2018-10-02T03:36:04.158Z,91.02
2018-10-02T03:38:32.510Z,90.10
2018-10-02T03:41:00.858Z,90.54
2018-10-02T03:43:29.227Z,89.92
2018-10-02T03:45:57.579Z,90.18
2018-10-02T03:48:25.914Z,89.88
2018-10-02T03:50:54.228Z,89.45
2018-10-02T03:53:22.594Z,89.40
2018-10-02T03:55:51.080Z,90.07
2018-10-02T03:58:19.581Z,90.45
2018-10-02T04:00:47.912Z,90.21
2018-10-02T04:03:16.261Z,89.43
2018-10-02T04:05:44.798Z,89.24
2018-10-02T04:08:13.154Z,89.90
2018-10-02T04:10:41.682Z,89.14
2018-10-02T04:13:10.140Z,89.46
2018-10-02T04:15:38.556Z,89.61
2018-10-02T04:18:06.946Z,88.65
2018-10-02T04:20:35.290Z,88.47
2018-10-02T04:23:03.594Z,89.42
2018-10-02T04:25:31.949Z,89.01
2018-10-02T04:28:00.682Z,88.24
2018-10-02T04:30:29.118Z,89.38
2018-10-02T04:32:57.408Z,89.18
2018-10-02T04:35:25.778Z,88.60
2018-10-02T04:37:54.331Z,88.05
2018-10-02T04:40:22.668Z,88.11
2018-10-02T04:42:50.978Z,88.42
2018-10-02T04:45:19.355Z,89.41
2018-10-02T04:47:47.692Z,88.86
2018-10-02T04:50:16.048Z,88.49
2018-10-02T04:52:44.351Z,87.50
2018-10-02T04:55:12.776Z,88.02
2018-10-02T04:57:41.112Z,88.88
2018-10-02T05:00:09.771Z,88.64
2018-10-02T05:02:38.100Z,87.52
2018-10-02T05:05:06.483Z,87.94
2018-10-02T05:07:34.902Z,87.72
2018-10-02T05:10:03.275Z,88.30
2018-10-02T05:12:31.623Z,87.99
2018-10-02T05:14:59.983Z,88.69
2018-10-02T05:17:28.436Z,88.33
2018-10-02T05:19:56.789Z,87.94
2018-10-02T05:22:25.144Z,87.69
2018-10-02T05:24:53.581Z,87.85
2018-10-02T05:27:22.169Z,87.07
2018-10-02T05:29:50.392Z,87.68
2018-10-02T05:32:18.814Z,88.02
2018-10-02T05:34:47.143Z,87.16
2018-10-02T05:37:15.476Z,87.15
2018-10-02T05:39:43.785Z,88.12
2018-10-02T05:42:12.164Z,87.02
2018-10-02T05:44:40.526Z,87.37
2018-10-02T05:47:08.848Z,87.90
2018-10-02T05:49:37.610Z,87.16
2018-10-02T05:52:05.959Z,87.45
2018-10-02T05:54:34.330Z,87.42
2018-10-02T05:57:02.767Z,87.76
2018-10-02T05:59:31.159Z,87.44
2018-10-02T06:02:00.078Z,86.71
2018-10-02T06:04:28.575Z,87.52
2018-10-02T06:06:57.005Z,87.23
2018-10-02T06:09:25.356Z,86.83
2018-10-02T06:11:53.727Z,87.23
2018-10-02T06:14:22.149Z,86.73
2018-10-02T06:16:50.486Z,86.10
2018-10-02T06:19:18.883Z,85.99
2018-10-02T06:21:47.290Z,86.46
2018-10-02T06:24:15.867Z,86.20
2018-10-02T06:26:44.189Z,86.30
2018-10-02T06:29:12.583Z,86.09
2018-10-02T06:31:40.895Z,86.40
2018-10-02T06:34:09.242Z,85.25
2018-10-02T06:36:37.677Z,85.41
2018-10-02T06:39:07.565Z,86.27
2018-10-02T06:41:35.991Z,85.68
2018-10-02T06:44:04.752Z,85.79
2018-10-02T06:46:33.149Z,85.15
2018-10-02T06:49:01.489Z,84.57
2018-10-02T06:51:29.961Z,85.01
2018-10-02T06:53:58.446Z,85.90
2018-10-02T06:56:26.764Z,85.82
2018-10-02T06:58:55.114Z,85.43
2018-10-02T07:01:23.437Z,86.29
2018-10-02T07:03:51.802Z,86.25
2018-10-02T07:06:20.137Z,87.06
2018-10-02T07:08:48.733Z,87.32
2018-10-02T07:11:16.998Z,88.03
2018-10-02T07:13:45.322Z,87.92
2018-10-02T07:16:13.659Z,87.58
2018-10-02T07:18:42.208Z,88.38
2018-10-02T07:21:10.522Z,88.39
2018-10-02T07:23:38.863Z,89.28
2018-10-02T07:26:07.365Z,90.37
2018-10-02T07:28:36.062Z,89.76
2018-10-02T07:31:04.438Z,90.10
2018-10-02T07:33:32.781Z,91.02
2018-10-02T07:36:01.183Z,91.12
2018-10-02T07:38:29.655Z,90.82
2018-10-02T07:40:58.009Z,91.42
2018-10-02T07:43:26.369Z,92.03
2018-10-02T07:45:54.777Z,91.10
2018-10-02T07:48:23.192Z,91.91
2018-10-02T07:50:51.550Z,91.35
2018-10-02T07:53:19.863Z,91.51
2018-10-02T07:55:48.306Z,92.13
2018-10-02T07:58:16.626Z,92.56
2018-10-02T08:00:45.090Z,92.24
2018-10-02T08:03:13.407Z,92.52
2018-10-02T08:05:41.847Z,91.54
2018-10-02T08:08:10.193Z,92.08
2018-10-02T08:10:38.538Z,92.16
2018-10-02T08:13:06.875Z,90.40
2018-10-02T08:15:35.343Z,91.69
2018-10-02T08:18:03.721Z,91.57
2018-10-02T08:20:32.155Z,92.04
2018-10-02T08:23:00.656Z,92.58
2018-10-02T08:25:28.989Z,92.88
2018-10-02T08:27:57.893Z,93.32
2018-10-02T08:30:26.354Z,93.25
2018-10-02T08:32:54.587Z,93.37
2018-10-02T08:35:23.121Z,93.32
2018-10-02T08:37:51.423Z,94.05
2018-10-02T08:40:19.992Z,93.77
2018-10-02T08:42:48.401Z,93.55
2018-10-02T08:48:10.139Z,93.54
2018-10-02T08:50:38.693Z,93.05
2018-10-02T08:53:07.061Z,93.14
2018-10-02T08:55:36.478Z,93.51
2018-10-02T08:58:04.935Z,92.69
2018-10-02T09:00:33.283Z,92.80
2018-10-02T09:03:01.688Z,92.66
2018-10-02T09:05:29.994Z,93.14
2018-10-02T09:07:59.197Z,93.28
2018-10-02T09:10:27.523Z,92.51
2018-10-02T09:12:56.076Z,93.48
2018-10-02T09:15:24.391Z,92.64
2018-10-02T09:17:52.740Z,93.07
2018-10-02T09:20:21.142Z,92.83
2018-10-02T09:22:49.474Z,93.04
2018-10-02T09:25:17.816Z,92.42
2018-10-02T09:27:46.167Z,90.92
2018-10-02T09:30:19.694Z,91.97
2018-10-02T09:32:53.223Z,91.31
2018-10-02T09:35:27.157Z,91.91
2018-10-02T09:38:00.770Z,90.81
2018-10-02T09:40:34.331Z,90.41
2018-10-02T09:43:08.033Z,90.91
2018-10-02T09:45:36.381Z,90.78
2018-10-02T09:48:12.431Z,91.33
2018-10-02T09:50:40.858Z,90.98
2018-10-02T09:53:09.095Z,91.48
2018-10-02T09:55:37.466Z,90.89
2018-10-02T09:58:05.875Z,91.35
2018-10-02T10:00:39.587Z,91.40
2018-10-02T10:03:07.915Z,90.85
2018-10-02T10:05:36.211Z,90.91
2018-10-02T10:08:04.503Z,91.36
2018-10-02T10:10:32.956Z,91.94
2018-10-02T10:13:01.300Z,91.97
2018-10-02T10:15:29.628Z,91.31
2018-10-02T10:17:57.947Z,91.88
2018-10-02T10:20:26.338Z,91.45
2018-10-02T10:22:54.684Z,91.51
2018-10-02T10:25:23.035Z,91.71
2018-10-02T10:27:51.364Z,91.66
2018-10-02T10:30:19.695Z,91.87
2018-10-02T10:32:48.033Z,91.32
2018-10-02T10:35:16.508Z,91.33
2018-10-02T10:37:44.880Z,91.39
2018-10-02T10:40:13.212Z,91.31
2018-10-02T10:42:41.543Z,90.77
2018-10-02T10:45:09.881Z,91.67
2018-10-02T10:47:38.244Z,91.12
2018-10-02T10:50:06.652Z,91.76
2018-10-02T10:52:35.123Z,90.46
2018-10-02T10:55:14.840Z,90.70
2018-10-02T10:57:43.244Z,91.73
2018-10-02T11:00:11.588Z,90.56
2018-10-02T11:02:39.907Z,90.01
2018-10-02T11:05:08.286Z,90.76
2018-10-02T11:07:36.604Z,91.03
2018-10-02T11:10:04.915Z,91.04
2018-10-02T11:12:33.245Z,92.08
2018-10-02T11:15:01.561Z,91.27
2018-10-02T11:17:29.894Z,91.69
2018-10-02T11:19:58.243Z,91.51
2018-10-02T11:22:26.602Z,90.31
2018-10-02T11:24:55.874Z,89.96
2018-10-02T11:27:24.345Z,90.47
2018-10-02T11:29:52.889Z,90.32
2018-10-02T11:32:21.631Z,90.03
2018-10-02T11:34:49.929Z,90.53
2018-10-02T11:37:18.332Z,89.84
2018-10-02T11:39:46.770Z,89.13
2018-10-02T11:42:15.114Z,90.39
2018-10-02T11:44:43.613Z,90.11
2018-10-02T11:47:11.893Z,89.79
2018-10-02T11:49:40.308Z,89.28
2018-10-02T11:52:09.435Z,88.40
2018-10-02T11:54:37.902Z,88.82
2018-10-02T11:57:06.233Z,89.08
2018-10-02T11:59:34.528Z,89.78
2018-10-02T12:02:02.883Z,89.80
2018-10-02T12:04:31.190Z,89.51
2018-10-02T12:06:59.505Z,89.31
2018-10-02T12:09:27.808Z,89.85
2018-10-02T12:11:56.343Z,88.95
2018-10-02T12:14:24.874Z,90.11
2018-10-02T12:16:53.218Z,90.60
2018-10-02T12:19:21.745Z,90.47
2018-10-02T12:21:51.155Z,90.96
2018-10-02T12:24:20.398Z,90.34
2018-10-02T12:26:49.472Z,91.09
2018-10-02T12:29:20.110Z,90.31
2018-10-02T12:31:49.446Z,91.81
2018-10-02T12:34:17.776Z,91.61
2018-10-02T12:36:48.546Z,91.89
2018-10-02T12:39:18.229Z,92.24
2018-10-02T12:41:46.510Z,91.40
2018-10-02T12:44:15.422Z,91.43
2018-10-02T12:46:44.391Z,91.84
2018-10-02T12:49:13.282Z,92.16
2018-10-02T12:51:42.986Z,91.11
2018-10-02T12:54:11.371Z,91.04
2018-10-02T12:56:39.686Z,91.45
2018-10-02T12:59:08.000Z,91.44
2018-10-02T13:01:36.306Z,91.17
2018-10-02T13:04:04.712Z,91.75
2018-10-02T13:06:33.030Z,91.20
2018-10-02T13:09:01.363Z,90.99
2018-10-02T13:11:29.694Z,90.39
2018-10-02T13:14:00.516Z,91.16
2018-10-02T13:16:28.854Z,92.13
2018-10-02T13:18:57.176Z,92.41
2018-10-02T13:21:25.951Z,91.82
2018-10-02T13:23:54.282Z,91.58
2018-10-02T13:26:22.606Z,92.23
2018-10-02T13:28:51.169Z,92.19
2018-10-02T13:31:19.571Z,91.64
2018-10-02T13:33:47.891Z,91.50
2018-10-02T13:36:16.191Z,91.61
2018-10-02T13:38:44.934Z,91.49
2018-10-02T13:41:13.251Z,90.75
2018-10-02T13:43:41.612Z,91.39
2018-10-02T13:46:09.912Z,91.73
2018-10-02T13:48:38.306Z,92.35
2018-10-02T13:51:07.055Z,92.63
2018-10-02T13:53:35.383Z,92.64
2018-10-02T13:56:03.690Z,92.22
2018-10-02T13:58:34.185Z,92.94
2018-10-02T14:01:02.515Z,93.68
2018-10-02T14:03:30.840Z,92.80
2018-10-02T14:05:59.139Z,93.43
2018-10-02T14:08:27.485Z,93.85
2018-10-02T14:10:56.982Z,94.10
2018-10-02T14:13:25.667Z,93.53
2018-10-02T14:15:54.010Z,94.06
2018-10-02T14:18:22.345Z,93.29
2018-10-02T14:20:50.762Z,93.24
2018-10-02T14:23:19.429Z,93.41
2018-10-02T14:25:47.743Z,93.45
2018-10-02T14:28:16.116Z,92.84
2018-10-02T14:30:44.428Z,92.99
2018-10-02T14:33:13.988Z,93.05
2018-10-02T14:35:42.983Z,93.13
2018-10-02T14:38:11.614Z,93.25
2018-10-02T14:40:39.985Z,93.07
2018-10-02T14:43:08.608Z,93.18
2018-10-02T14:45:37.451Z,93.13
2018-10-02T14:48:05.817Z,93.01
2018-10-02T14:51:00.725Z,92.96
2018-10-02T14:53:29.043Z,92.65
2018-10-02T14:55:57.355Z,92.75
2018-10-02T14:58:25.692Z,92.85
2018-10-02T15:00:54.166Z,93.17
2018-10-02T15:03:22.482Z,93.66
2018-10-02T15:05:50.963Z,94.50
2018-10-02T15:08:19.318Z,94.33
2018-10-02T15:10:48.356Z,94.46
2018-10-02T15:13:16.895Z,94.60
2018-10-02T15:15:45.481Z,95.08
2018-10-02T15:18:13.882Z,94.93
2018-10-02T15:20:42.603Z,95.56
2018-10-02T15:23:10.912Z,96.26
2018-10-02T15:25:39.211Z,95.59
2018-10-02T15:28:07.680Z,95.90
2018-10-02T15:30:36.327Z,96.16
2018-10-02T15:33:04.740Z,96.27
2018-10-02T15:35:33.064Z,95.74
2018-10-02T15:38:01.483Z,95.50
2018-10-02T15:40:29.762Z,96.16
2018-10-02T15:42:58.332Z,95.11
2018-10-02T15:45:26.959Z,95.63
2018-10-02T15:47:55.427Z,95.78
2018-10-02T15:50:23.936Z,96.06
2018-10-02T15:52:52.542Z,96.17
2018-10-02T15:55:21.018Z,96.03
2018-10-02T15:57:49.433Z,96.22
2018-10-02T16:00:18.094Z,96.64
2018-10-02T16:02:46.709Z,95.86
2018-10-02T16:05:15.445Z,96.53
2018-10-02T16:07:43.956Z,96.31
2018-10-02T16:10:12.414Z,96.11
2018-10-02T16:12:40.859Z,96.26
2018-10-02T16:15:09.377Z,96.01
2018-10-02T16:17:37.853Z,95.87
2018-10-02T16:20:06.739Z,95.99
2018-10-02T16:22:35.235Z,96.04
2018-10-02T16:25:03.788Z,96.06
2018-10-02T16:27:32.412Z,96.43
2018-10-02T16:30:00.922Z,96.42
2018-10-02T16:32:29.453Z,96.57
2018-10-02T16:34:58.098Z,96.82
2018-10-02T16:37:26.686Z,96.23
2018-10-02T16:39:55.239Z,96.43
2018-10-02T16:42:23.873Z,96.02
2018-10-02T16:44:52.470Z,95.68
2018-10-02T16:47:21.566Z,95.83
2018-10-02T16:49:50.181Z,96.36
2018-10-02T16:52:18.611Z,95.96
2018-10-02T16:54:47.540Z,96.12
2018-10-02T16:57:16.168Z,96.22
2018-10-02T16:59:44.759Z,96.35
2018-10-02T17:02:13.579Z,96.32
2018-10-02T17:04:42.108Z,96.30
2018-10-02T17:07:10.627Z,96.60
2018-10-02T17:09:39.019Z,96.77
2018-10-02T17:12:07.444Z,96.25
2018-10-02T17:14:35.816Z,95.76
2018-10-02T17:17:04.334Z,95.87
2018-10-02T17:19:32.855Z,95.79
2018-10-02T17:22:01.443Z,95.52
2018-10-02T17:24:29.992Z,95.88
2018-10-02T17:26:58.694Z,95.51
2018-10-02T17:29:27.187Z,95.32
2018-10-02T17:31:55.590Z,95.71
2018-10-02T17:34:24.044Z,96.04
2018-10-02T17:36:52.540Z,96.03
2018-10-02T17:39:21.060Z,96.19
2018-10-02T17:41:49.457Z,95.96
2018-10-02T17:44:18.902Z,96.25
2018-10-02T17:46:47.452Z,96.07
2018-10-02T17:49:15.987Z,96.15
2018-10-02T17:51:44.546Z,95.87
2018-10-02T17:54:13.006Z,96.05
2018-10-02T17:56:41.556Z,95.39
2018-10-02T17:59:10.005Z,95.40
2018-10-02T18:01:38.527Z,95.39
2018-10-02T18:04:07.183Z,95.77
2018-10-02T18:06:35.706Z,95.71
2018-10-02T18:09:05.322Z,95.62
2018-10-02T18:11:34.080Z,95.77
2018-10-02T18:14:02.682Z,95.42
2018-10-02T18:16:33.726Z,95.48
2018-10-02T18:19:02.269Z,95.23
2018-10-02T18:21:30.944Z,95.79
2018-10-02T18:23:59.683Z,95.60
2018-10-02T18:26:28.176Z,95.63
2018-10-02T18:28:56.661Z,95.78
2018-10-02T18:31:25.138Z,96.12
2018-10-02T18:33:53.644Z,95.14
2018-10-02T18:36:22.212Z,95.54
2018-10-02T18:38:50.741Z,95.57
2018-10-02T18:41:19.658Z,95.44
2018-10-02T18:43:48.185Z,95.78
2018-10-02T18:46:16.922Z,95.83
2018-10-02T18:48:45.869Z,95.56
2018-10-02T18:51:14.569Z,95.13
2018-10-02T18:53:43.273Z,95.71
2018-10-02T18:56:11.848Z,95.57
2018-10-02T18:58:40.442Z,95.17
2018-10-02T19:01:09.017Z,95.31
2018-10-02T19:03:37.629Z,94.86
2018-10-02T19:06:06.244Z,95.07
2018-10-02T19:08:39.872Z,94.81
2018-10-02T19:11:13.634Z,95.15
2018-10-02T19:13:42.347Z,95.06
2018-10-02T19:16:16.058Z,95.67
2018-10-02T19:18:44.780Z,95.20
2018-10-02T19:21:13.450Z,95.16
2018-10-02T19:23:42.054Z,95.35
2018-10-02T19:26:41.461Z,95.76
2018-10-02T19:29:10.360Z,95.67
2018-10-02T19:31:44.227Z,95.54
2018-10-02T19:34:12.868Z,95.44
2018-10-02T19:36:41.585Z,95.45
2018-10-02T19:39:18.263Z,95.12
2018-10-02T19:41:47.069Z,95.42
2018-10-02T19:44:15.646Z,95.53
2018-10-02T19:46:52.115Z,95.88
2018-10-02T19:49:22.308Z,95.68
2018-10-02T19:51:56.056Z,95.51
2018-10-02T19:54:25.488Z,95.92
2018-10-02T19:56:54.377Z,95.14
2018-10-02T19:59:23.277Z,95.29
2018-10-02T20:01:51.788Z,95.32
2018-10-02T20:04:20.486Z,95.15
2018-10-02T20:06:49.205Z,95.10
2018-10-02T20:09:17.772Z,94.84
2018-10-02T20:11:46.308Z,95.00
2018-10-02T20:14:15.046Z,95.34
2018-10-02T20:16:43.522Z,95.23
2018-10-02T20:19:12.204Z,95.55
2018-10-02T20:21:40.878Z,94.97
2018-10-02T20:24:09.482Z,94.85
2018-10-02T20:26:38.020Z,95.17
2018-10-02T20:29:06.669Z,95.36
2018-10-02T20:31:39.030Z,95.06
2018-10-02T20:34:07.559Z,95.32
2018-10-02T20:36:36.243Z,95.48
2018-10-02T20:39:06.150Z,94.89
2018-10-02T20:41:34.818Z,94.53
2018-10-02T20:44:03.611Z,93.95
2018-10-02T20:46:32.323Z,93.78
2018-10-02T20:49:01.254Z,93.71
2018-10-02T20:51:29.668Z,94.00
2018-10-02T20:53:58.171Z,93.73
2018-10-02T20:56:27.196Z,94.09
2018-10-02T20:58:55.620Z,94.15
2018-10-02T21:01:24.165Z,93.76
2018-10-02T21:03:52.841Z,93.37
2018-10-02T21:06:21.322Z,93.21
2018-10-02T21:08:49.751Z,91.82
2018-10-02T21:11:18.188Z,89.77
2018-10-02T21:13:46.600Z,90.03
2018-10-02T21:16:15.168Z,88.79
2018-10-02T21:18:43.633Z,86.68
2018-10-02T21:21:12.090Z,85.69
2018-10-02T21:23:40.637Z,85.66
2018-10-02T21:26:09.054Z,84.72
2018-10-02T21:28:37.603Z,84.63
2018-10-02T21:31:06.581Z,85.32
2018-10-02T21:33:35.006Z,84.32
2018-10-02T21:36:03.495Z,85.14
2018-10-02T21:38:32.275Z,84.12
2018-10-02T21:41:00.819Z,84.56
2018-10-02T21:43:29.283Z,85.47
2018-10-02T21:45:58.209Z,83.42
2018-10-02T21:48:27.211Z,84.30
2018-10-02T21:50:55.594Z,82.71
2018-10-02T21:53:24.022Z,83.63
2018-10-02T21:55:52.469Z,82.17
2018-10-02T21:58:20.952Z,82.20
2018-10-02T22:00:49.748Z,82.35
2018-10-02T22:03:18.160Z,81.93
2018-10-02T22:05:46.639Z,82.18
2018-10-02T22:08:15.331Z,81.95
2018-10-02T22:10:43.740Z,82.47
2018-10-02T22:13:12.261Z,81.90
2018-10-02T22:15:40.686Z,80.61
2018-10-02T22:18:09.095Z,80.73
2018-10-02T22:20:37.560Z,81.37
2018-10-02T22:23:06.040Z,80.59
2018-10-02T22:25:34.462Z,79.87
2018-10-02T22:28:02.988Z,79.60
2018-10-02T22:30:31.484Z,79.53
2018-10-02T22:33:00.006Z,80.77
2018-10-02T22:35:28.515Z,80.10
2018-10-02T22:37:56.948Z,80.75
2018-10-02T22:40:25.557Z,79.17
2018-10-02T22:42:53.989Z,80.22
2018-10-02T22:45:22.439Z,79.26
2018-10-02T22:47:50.920Z,78.53
2018-10-02T22:50:19.586Z,78.59
2018-10-02T22:52:47.963Z,79.26
2018-10-02T22:55:16.823Z,78.69
2018-10-02T22:57:50.659Z,78.55
2018-10-02T23:00:19.051Z,77.95
2018-10-02T23:05:59.870Z,76.83
2018-10-02T23:08:28.210Z,76.97
2018-10-02T23:10:56.496Z,78.32
2018-10-02T23:13:25.859Z,77.72
2018-10-02T23:15:54.231Z,77.80
2018-10-02T23:18:22.555Z,78.58
2018-10-02T23:20:50.903Z,77.66
2018-10-02T23:23:19.517Z,77.44
2018-10-02T23:25:47.855Z,77.03
2018-10-02T23:28:16.219Z,77.57
2018-10-02T23:30:44.534Z,77.00
2018-10-02T23:33:13.680Z,76.85
2018-10-02T23:35:42.024Z,76.70
2018-10-02T23:38:10.403Z,76.82
2018-10-02T23:40:38.774Z,76.60
2018-10-02T23:43:07.290Z,76.13
2018-10-02T23:45:35.622Z,76.64
2018-10-02T23:48:03.954Z,76.53
2018-10-02T23:50:32.354Z,76.99
2018-10-02T23:53:00.668Z,76.71
2018-10-02T23:55:28.996Z,77.48
2018-10-02T23:57:57.287Z,76.71
